PWSweather.com
Personal Weather Stations
Station Observations
WISCHPK61
Green Bay Schmitt Park, Green Bay, WI 54311

Green Bay Schmitt ParkGreen Bay, WI 54311

Lat: 44.514277, Lon: -87.935067

Elevation: 735

Station Type: Acu Rite Pro Weather Center model 02032C

http://greenbayweathercam.com

High Low Average
Temperature 26.6°F-3.0°C 16.2°F-8.8°C 20.0°F-6.7°C
Dew Point 26.4°F-3.1°C 16.0°F-8.9°C 19.6°F-6.9°C
Winds 1.2 mph 1.9 kmh Calm Calm Calm SCalm S
Wind Gusts 1.2 mph1.9 kmh -- --
Humidity 99% 97% 98%
Pressure 29.53 in1000.0 mb 29.23 in989.8 mb -
Precipitation 0.00 in0.0 mm - -
Hour Temp Dew Point Humidity Winds Wind Gusts Pressure Precip Precip Rate Daily Precip Total
12:00 AM 28.2°F-2.1°C 28.0°F-2.2°C 99% Calm Calm -- 29.20 in988.8 mb - 0.00 in0.0 mm 0.18 in4.6 mm
01:00 AM 26.6°F-3.0°C 26.4°F-3.1°C 99% Calm Calm -- 29.23 in989.8 mb - 0.00 in0.0 mm 0.00 in0.0 mm
02:00 AM 25.0°F-3.9°C 24.5°F-4.2°C 98% Calm Calm -- 29.27 in991.2 mb - 0.00 in0.0 mm 0.00 in0.0 mm
03:00 AM 21.7°F-5.7°C 21.4°F-5.9°C 99% Calm Calm -- 29.32 in992.9 mb - 0.00 in0.0 mm 0.00 in0.0 mm
04:00 AM 18.3°F-7.6°C 18.1°F-7.7°C 99% Calm Calm 1.2 mph1.9 kmh 29.37 in994.6 mb - 0.00 in0.0 mm 0.00 in0.0 mm
05:00 AM 16.7°F-8.5°C 16.2°F-8.8°C 98% Calm Calm -- 29.38 in994.9 mb - 0.00 in0.0 mm 0.00 in0.0 mm
06:00 AM 16.5°F-8.6°C 16.0°F-8.9°C 98% Calm Calm -- 29.40 in995.6 mb - 0.00 in0.0 mm 0.00 in0.0 mm
07:00 AM 16.7°F-8.5°C 16.5°F-8.6°C 99% Calm Calm -- 29.42 in996.3 mb - 0.00 in0.0 mm 0.00 in0.0 mm
08:00 AM 16.2°F-8.8°C 16.0°F-8.9°C 99% Calm Calm -- 29.44 in997.0 mb - 0.00 in0.0 mm 0.00 in0.0 mm
09:00 AM 16.7°F-8.5°C 16.2°F-8.8°C 98% Calm Calm -- 29.47 in998.0 mb - 0.00 in0.0 mm 0.00 in0.0 mm
10:00 AM 17.2°F-8.2°C 16.9°F-8.4°C 99% 1.2 mph NNE1.9 kmh NNE 1.2 mph1.9 kmh 29.51 in999.3 mb - 0.00 in0.0 mm 0.00 in0.0 mm
11:00 AM 19.5°F-6.9°C 19.3°F-7.1°C 99% Calm Calm 1.2 mph1.9 kmh 29.51 in999.3 mb - 0.00 in0.0 mm 0.00 in0.0 mm
12:00 PM 20.3°F-6.5°C 19.8°F-6.8°C 98% Calm Calm 1.2 mph1.9 kmh 29.53 in1000.0 mb - 0.00 in0.0 mm 0.00 in0.0 mm
01:00 PM 23.9°F-4.5°C 23.7°F-4.6°C 99% Calm Calm -- 29.52 in999.7 mb - 0.00 in0.0 mm 0.00 in0.0 mm
02:00 PM 25.9°F-3.4°C 25.7°F-3.5°C 99% Calm Calm -- 29.50 in999.0 mb - 0.00 in0.0 mm 0.00 in0.0 mm
03:00 PM 25.0°F-3.9°C 24.3°F-4.3°C 97% Calm Calm -- 29.50 in999.0 mb - 0.00 in0.0 mm 0.00 in0.0 mm
04:00 PM 22.6°F-5.2°C 22.1°F-5.5°C 98% Calm Calm -- 29.48 in998.3 mb - 0.00 in0.0 mm 0.00 in0.0 mm
05:00 PM 20.1°F-6.6°C 19.9°F-6.7°C 99% Calm Calm -- 29.48 in998.3 mb - 0.00 in0.0 mm 0.00 in0.0 mm
06:00 PM 18.0°F-7.8°C 17.8°F-7.9°C 99% Calm Calm -- 29.46 in997.6 mb - 0.00 in0.0 mm 0.00 in0.0 mm
07:00 PM 17.4°F-8.1°C 16.9°F-8.4°C 98% Calm Calm -- 29.43 in996.6 mb - 0.00 in0.0 mm 0.00 in0.0 mm
08:00 PM 17.8°F-7.9°C 17.3°F-8.2°C 98% Calm Calm -- 29.43 in996.6 mb - 0.00 in0.0 mm 0.00 in0.0 mm
09:00 PM 17.6°F-8.0°C 17.4°F-8.1°C 99% Calm Calm -- 29.37 in994.6 mb - 0.00 in0.0 mm 0.00 in0.0 mm
10:00 PM 18.7°F-7.4°C 18.0°F-7.8°C 97% Calm Calm -- 29.36 in994.2 mb - 0.00 in0.0 mm 0.00 in0.0 mm
11:00 PM 20.1°F-6.6°C 19.6°F-6.9°C 98% Calm Calm -- 29.33 in993.2 mb - 0.00 in0.0 mm 0.00 in0.0 mm